createdAt,value
2022-09-10T00:01:25.441Z,55.54
2022-09-10T00:03:54.715Z,55.53
2022-09-10T00:06:27.510Z,55.82
2022-09-10T00:08:57.345Z,55.85
2022-09-10T00:11:31.930Z,56.05
2022-09-10T00:14:00.993Z,55.77
2022-09-10T00:16:29.350Z,55.55
2022-09-10T00:18:58.321Z,55.55
2022-09-10T00:21:26.433Z,56.71
2022-09-10T00:23:54.558Z,55.72
2022-09-10T00:26:25.268Z,55.79
2022-09-10T00:28:57.142Z,55.74
2022-09-10T00:31:28.358Z,55.42
2022-09-10T00:33:56.887Z,55.66
2022-09-10T00:36:27.134Z,55.94
2022-09-10T00:38:57.790Z,54.83
2022-09-10T00:41:27.051Z,55.78
2022-09-10T00:43:58.049Z,55.26
2022-09-10T00:46:30.585Z,55.93
2022-09-10T00:49:02.532Z,55.53
2022-09-10T00:51:34.474Z,55.77
2022-09-10T00:54:03.820Z,55.88
2022-09-10T00:56:33.637Z,55.15
2022-09-10T00:59:05.120Z,54.90
2022-09-10T01:01:34.717Z,54.25
2022-09-10T01:04:05.096Z,54.87
2022-09-10T01:06:33.554Z,55.10
2022-09-10T01:09:03.115Z,54.77
2022-09-10T01:11:54.201Z,54.71
2022-09-10T01:14:47.866Z,54.32
2022-09-10T01:17:25.743Z,55.51
2022-09-10T01:20:20.467Z,54.40
2022-09-10T01:23:06.148Z,55.59
2022-09-10T01:25:44.525Z,55.12
2022-09-10T01:28:18.834Z,55.06
2022-09-10T01:30:53.162Z,54.61
2022-09-10T01:33:26.445Z,54.69
2022-09-10T01:35:58.702Z,56.58
2022-09-10T01:38:31.742Z,55.14
2022-09-10T01:41:00.818Z,55.92
2022-09-10T01:43:36.101Z,54.92
2022-09-10T01:46:19.199Z,54.59
2022-09-10T01:49:06.101Z,55.60
2022-09-10T01:51:48.957Z,55.35
2022-09-10T01:54:30.286Z,55.81
2022-09-10T01:57:11.214Z,55.65
2022-09-10T01:59:51.939Z,55.51
2022-09-10T02:02:24.223Z,56.24
2022-09-10T02:04:54.225Z,56.93
2022-09-10T02:07:26.723Z,56.25
2022-09-10T02:09:57.413Z,56.76
2022-09-10T02:12:27.520Z,57.33
2022-09-10T02:15:12.781Z,58.13
2022-09-10T02:17:56.959Z,58.21
2022-09-10T02:20:25.314Z,57.46
2022-09-10T02:22:58.614Z,57.71
2022-09-10T02:25:34.472Z,58.14
2022-09-10T02:28:04.592Z,57.72
2022-09-10T02:30:35.054Z,58.18
2022-09-10T02:33:03.361Z,58.50
2022-09-10T02:35:32.072Z,59.39
2022-09-10T02:38:00.126Z,58.77
2022-09-10T02:40:31.931Z,58.89
2022-09-10T02:43:00.601Z,58.97
2022-09-10T02:45:30.269Z,58.89
2022-09-10T02:48:00.895Z,58.68
2022-09-10T02:50:29.975Z,59.84
2022-09-10T02:52:58.017Z,59.77
2022-09-10T02:55:26.054Z,59.85
2022-09-10T02:57:54.320Z,59.72
2022-09-10T03:00:23.079Z,59.58
2022-09-10T03:02:51.141Z,59.96
2022-09-10T03:05:20.497Z,60.21
2022-09-10T03:07:48.592Z,60.19
2022-09-10T03:10:17.598Z,59.29
2022-09-10T03:12:48.011Z,59.16
2022-09-10T03:15:16.191Z,59.03
2022-09-10T03:17:44.919Z,58.46
2022-09-10T03:20:14.918Z,59.14
2022-09-10T03:22:44.256Z,59.44
2022-09-10T03:25:17.862Z,59.76
2022-09-10T03:27:45.943Z,60.47
2022-09-10T03:30:14.559Z,59.57
2022-09-10T03:32:44.288Z,59.07
2022-09-10T03:35:15.825Z,60.56
2022-09-10T03:37:45.608Z,60.86
2022-09-10T03:40:13.668Z,61.85
2022-09-10T03:42:42.390Z,62.76
2022-09-10T03:45:12.133Z,62.25
2022-09-10T03:47:40.664Z,62.17
2022-09-10T03:50:11.454Z,61.51
2022-09-10T03:52:40.641Z,60.29
2022-09-10T03:55:11.514Z,60.50
2022-09-10T03:57:41.689Z,61.35
2022-09-10T04:00:11.889Z,61.70
2022-09-10T04:02:44.241Z,60.89
2022-09-10T04:05:14.239Z,61.70
2022-09-10T04:07:42.955Z,62.09
2022-09-10T04:10:13.342Z,62.12
2022-09-10T04:12:42.418Z,61.34
2022-09-10T04:15:12.038Z,61.03
2022-09-10T04:17:40.184Z,61.65
2022-09-10T04:20:09.461Z,63.24
2022-09-10T04:22:37.561Z,62.96
2022-09-10T04:25:06.268Z,60.98
2022-09-10T04:27:35.679Z,60.53
2022-09-10T04:30:04.283Z,61.33
2022-09-10T04:32:32.323Z,62.11
2022-09-10T04:35:02.672Z,61.43
2022-09-10T04:37:31.295Z,61.07
2022-09-10T04:39:59.282Z,62.35
2022-09-10T04:42:28.290Z,63.99
2022-09-10T04:44:59.137Z,63.28
2022-09-10T04:47:28.078Z,63.45
2022-09-10T04:49:56.024Z,62.91
2022-09-10T04:52:24.588Z,63.07
2022-09-10T04:54:53.931Z,63.30
2022-09-10T04:57:22.216Z,62.72
2022-09-10T04:59:50.392Z,62.89
2022-09-10T05:02:20.858Z,62.61
2022-09-10T05:04:49.234Z,62.56
2022-09-10T05:07:17.332Z,62.58
2022-09-10T05:09:45.486Z,61.61
2022-09-10T05:12:19.564Z,61.76
2022-09-10T05:14:49.018Z,61.78
2022-09-10T05:17:17.316Z,62.10
2022-09-10T05:19:46.783Z,62.87
2022-09-10T05:22:15.131Z,63.13
2022-09-10T05:24:44.117Z,62.98
2022-09-10T05:27:12.074Z,64.01
2022-09-10T05:29:40.794Z,64.05
2022-09-10T05:32:09.717Z,62.70
2022-09-10T05:34:39.766Z,62.45
2022-09-10T05:37:09.206Z,62.24
2022-09-10T05:39:37.736Z,62.48
2022-09-10T05:42:06.231Z,63.04
2022-09-10T05:44:35.715Z,63.36
2022-09-10T05:47:04.572Z,63.49
2022-09-10T05:49:33.920Z,64.49
2022-09-10T05:52:03.929Z,65.28
2022-09-10T05:54:33.647Z,65.17
2022-09-10T05:57:01.900Z,65.65
2022-09-10T05:59:31.303Z,63.34
2022-09-10T06:01:59.347Z,63.59
2022-09-10T06:04:28.339Z,64.07
2022-09-10T06:06:56.380Z,63.35
2022-09-10T06:09:24.557Z,63.45
2022-09-10T06:12:06.642Z,62.84
2022-09-10T06:14:35.611Z,63.57
2022-09-10T06:17:04.386Z,65.10
2022-09-10T06:19:33.881Z,63.73
2022-09-10T06:22:01.885Z,63.75
2022-09-10T06:24:32.208Z,63.17
2022-09-10T06:27:02.144Z,62.48
2022-09-10T06:29:36.606Z,63.33
2022-09-10T06:32:06.603Z,63.19
2022-09-10T06:34:35.845Z,62.69
2022-09-10T06:37:06.092Z,64.06
2022-09-10T06:39:37.190Z,63.00
2022-09-10T06:42:07.248Z,62.18
2022-09-10T06:44:55.361Z,63.64
2022-09-10T06:50:26.556Z,61.94
2022-09-10T06:52:58.112Z,62.77
2022-09-10T06:55:26.729Z,62.27
2022-09-10T06:57:54.766Z,62.17
2022-09-10T07:00:24.644Z,63.74
2022-09-10T07:02:55.009Z,63.02
2022-09-10T07:05:24.275Z,62.71
2022-09-10T07:07:52.762Z,62.26
2022-09-10T07:10:21.642Z,62.55
2022-09-10T07:12:50.171Z,63.37
2022-09-10T07:15:19.845Z,64.04
2022-09-10T07:17:49.262Z,63.35
2022-09-10T07:20:17.699Z,63.39
2022-09-10T07:22:48.032Z,63.71
2022-09-10T07:25:19.548Z,63.88
2022-09-10T07:28:01.297Z,65.21
2022-09-10T07:30:42.044Z,63.20
2022-09-10T07:33:12.346Z,63.36
2022-09-10T07:35:43.303Z,63.56
2022-09-10T07:38:17.303Z,64.10
2022-09-10T07:40:51.087Z,63.52
2022-09-10T07:43:21.355Z,63.85
2022-09-10T07:45:49.417Z,64.09
2022-09-10T07:48:19.999Z,63.14
2022-09-10T07:50:48.564Z,63.44
2022-09-10T07:53:29.194Z,63.37
2022-09-10T07:56:25.844Z,63.17
2022-09-10T07:59:11.529Z,64.08
2022-09-10T08:06:23.535Z,63.28
2022-09-10T08:08:57.140Z,61.81
2022-09-10T08:11:41.848Z,62.51
2022-09-10T08:14:13.487Z,61.60
2022-09-10T08:16:51.044Z,62.88
2022-09-10T08:19:27.566Z,63.64
2022-09-10T08:21:59.416Z,64.16
2022-09-10T08:24:32.602Z,61.76
2022-09-10T08:27:00.998Z,62.13
2022-09-10T08:29:31.747Z,61.60
2022-09-10T08:32:05.084Z,62.69
2022-09-10T08:34:34.277Z,63.01
2022-09-10T08:37:09.941Z,63.29
2022-09-10T08:39:39.488Z,63.00
2022-09-10T08:42:17.558Z,61.83
2022-09-10T08:44:50.532Z,62.82
2022-09-10T08:47:29.945Z,62.46
2022-09-10T08:50:06.746Z,62.60
2022-09-10T08:52:45.058Z,63.16
2022-09-10T08:55:30.815Z,63.37
2022-09-10T08:58:03.374Z,63.62
2022-09-10T09:00:34.827Z,63.06
2022-09-10T09:03:16.593Z,64.45
2022-09-10T09:05:48.695Z,65.09
2022-09-10T09:08:25.282Z,64.50
2022-09-10T09:11:05.776Z,64.11
2022-09-10T09:13:55.820Z,64.31
2022-09-10T09:16:37.635Z,63.70
2022-09-10T09:19:15.771Z,64.85
2022-09-10T09:21:52.351Z,63.57
2022-09-10T09:24:29.364Z,64.23
2022-09-10T09:27:04.843Z,65.02
2022-09-10T09:29:38.708Z,65.29
2022-09-10T09:32:07.500Z,64.85
2022-09-10T09:34:40.698Z,64.82
2022-09-10T09:37:18.089Z,63.91
2022-09-10T09:39:59.065Z,63.81
2022-09-10T09:42:37.523Z,62.92
2022-09-10T09:45:16.230Z,63.26
2022-09-10T09:47:46.040Z,63.47
2022-09-10T09:50:15.651Z,64.10
2022-09-10T09:52:45.440Z,64.12
2022-09-10T09:55:23.969Z,64.32
2022-09-10T09:58:13.634Z,63.04
2022-09-10T10:00:41.749Z,62.79
2022-09-10T10:03:21.694Z,63.18
2022-09-10T10:05:50.209Z,63.25
2022-09-10T10:08:35.312Z,63.45
2022-09-10T10:11:05.710Z,62.34
2022-09-10T10:13:45.935Z,62.36
2022-09-10T10:16:54.393Z,63.42
2022-09-10T10:19:31.708Z,63.08
2022-09-10T10:22:22.708Z,64.31
2022-09-10T10:24:53.974Z,63.27
2022-09-10T10:27:33.023Z,63.35
2022-09-10T10:30:34.720Z,63.84
2022-09-10T10:33:29.415Z,63.78
2022-09-10T10:36:07.948Z,63.06
2022-09-10T10:38:40.467Z,63.89
2022-09-10T10:41:52.287Z,64.64
2022-09-10T10:44:43.380Z,63.55
2022-09-10T10:47:34.310Z,63.79
2022-09-10T10:50:12.331Z,64.03
2022-09-10T10:52:58.713Z,64.17
2022-09-10T10:55:32.419Z,63.00
2022-09-10T10:58:22.403Z,62.84
2022-09-10T11:00:57.275Z,64.02
2022-09-10T11:03:30.137Z,63.88
2022-09-10T11:06:05.100Z,64.02
2022-09-10T11:08:38.661Z,65.10
2022-09-10T11:11:14.332Z,64.77
2022-09-10T11:13:50.608Z,64.91
2022-09-10T11:16:25.422Z,64.78
2022-09-10T11:18:58.942Z,63.28
2022-09-10T11:21:31.294Z,63.48
2022-09-10T11:24:05.135Z,63.00
2022-09-10T11:26:38.188Z,62.92
2022-09-10T11:29:22.321Z,63.83
2022-09-10T11:31:59.325Z,63.47
2022-09-10T11:34:34.642Z,63.15
2022-09-10T11:37:12.997Z,63.54
2022-09-10T11:39:46.660Z,63.22
2022-09-10T11:42:21.182Z,62.36
2022-09-10T11:44:59.479Z,62.69
2022-09-10T11:47:34.363Z,63.21
2022-09-10T11:50:06.966Z,63.50
2022-09-10T11:52:35.897Z,63.24
2022-09-10T11:55:05.227Z,62.71
2022-09-10T11:57:40.706Z,62.86
2022-09-10T12:00:15.961Z,60.66
2022-09-10T12:03:05.744Z,61.50
2022-09-10T12:05:44.792Z,61.85
2022-09-10T12:08:21.346Z,61.16
2022-09-10T12:10:59.713Z,62.81
2022-09-10T12:13:27.815Z,61.94
2022-09-10T12:16:02.040Z,62.19
2022-09-10T12:18:42.905Z,62.46
2022-09-10T12:21:22.886Z,62.01
2022-09-10T12:23:54.324Z,62.07
2022-09-10T12:26:23.397Z,62.52
2022-09-10T12:29:07.587Z,61.38
2022-09-10T12:32:13.594Z,61.65
2022-09-10T12:34:43.140Z,61.55
2022-09-10T12:37:28.015Z,60.68
2022-09-10T12:40:33.426Z,61.98
2022-09-10T12:43:51.897Z,61.67
2022-09-10T12:46:22.825Z,60.47
2022-09-10T12:49:05.359Z,61.20
2022-09-10T12:51:48.886Z,59.62
2022-09-10T12:54:33.747Z,58.78
2022-09-10T12:57:20.347Z,57.70
2022-09-10T13:00:17.943Z,59.52
2022-09-10T13:02:53.890Z,59.25
2022-09-10T13:05:31.555Z,57.29
2022-09-10T13:08:27.012Z,58.94
2022-09-10T13:11:16.612Z,58.63
2022-09-10T13:13:51.700Z,58.33
2022-09-10T13:16:21.435Z,58.77
2022-09-10T13:21:56.035Z,58.05
2022-09-10T13:25:01.393Z,59.35
2022-09-10T13:27:44.450Z,58.71
2022-09-10T13:30:18.351Z,58.75
2022-09-10T13:32:52.202Z,59.86
2022-09-10T13:35:59.818Z,60.19
2022-09-10T13:39:06.622Z,59.43
2022-09-10T13:41:50.371Z,59.26
2022-09-10T13:44:43.040Z,59.03
2022-09-10T13:47:14.803Z,60.03
2022-09-10T13:49:53.533Z,59.31
2022-09-10T13:52:28.865Z,59.48
2022-09-10T13:54:59.389Z,59.61
2022-09-10T13:57:32.041Z,59.30
2022-09-10T14:00:06.364Z,58.00
2022-09-10T14:02:45.653Z,58.35
2022-09-10T14:05:31.005Z,58.75
2022-09-10T14:08:02.989Z,59.32
2022-09-10T14:10:33.457Z,58.30
2022-09-10T14:13:03.475Z,58.96
2022-09-10T14:15:38.975Z,58.67
2022-09-10T14:18:07.503Z,59.66
2022-09-10T14:20:36.665Z,57.56
2022-09-10T14:23:07.096Z,57.63
2022-09-10T14:25:37.495Z,58.85
2022-09-10T14:28:26.520Z,59.05
2022-09-10T14:31:20.540Z,58.62
2022-09-10T14:33:48.750Z,58.82
2022-09-10T14:36:21.553Z,59.61
2022-09-10T14:39:03.010Z,59.66
2022-09-10T14:41:33.309Z,59.63
2022-09-10T14:44:29.746Z,58.34
2022-09-10T14:47:00.112Z,58.83
2022-09-10T14:49:30.327Z,58.18
2022-09-10T14:51:59.409Z,59.31
2022-09-10T14:54:27.432Z,59.50
2022-09-10T14:57:13.125Z,58.70
2022-09-10T14:59:44.890Z,58.80
2022-09-10T15:02:18.951Z,58.43
2022-09-10T15:04:47.102Z,58.88
2022-09-10T15:07:15.207Z,58.82
2022-09-10T15:09:43.441Z,58.97
2022-09-10T15:12:19.566Z,59.13
2022-09-10T15:14:48.947Z,58.99
2022-09-10T15:17:18.826Z,58.99
2022-09-10T15:19:48.485Z,59.67
2022-09-10T15:22:39.469Z,57.53
2022-09-10T15:25:40.196Z,58.25
2022-09-10T15:28:27.747Z,58.26
2022-09-10T15:31:12.353Z,59.67
2022-09-10T15:33:47.295Z,60.03
2022-09-10T15:36:24.360Z,58.95
2022-09-10T15:39:13.982Z,59.06
2022-09-10T15:41:54.728Z,58.89
2022-09-10T15:44:36.104Z,59.18
2022-09-10T15:47:08.716Z,59.33
2022-09-10T15:49:44.076Z,59.30
2022-09-10T15:52:14.248Z,58.64
2022-09-10T15:54:51.890Z,58.83
2022-09-10T15:58:04.644Z,59.70
2022-09-10T16:00:49.556Z,58.61
2022-09-10T16:04:18.330Z,59.36
2022-09-10T16:08:18.825Z,59.28
2022-09-10T16:11:13.050Z,59.34
2022-09-10T16:13:51.350Z,59.11
2022-09-10T16:20:03.443Z,59.62
2022-09-10T16:22:45.336Z,59.23
2022-09-10T16:25:34.979Z,59.28
2022-09-10T16:28:42.862Z,59.63
2022-09-10T16:31:26.174Z,59.93
2022-09-10T16:34:11.491Z,59.59
2022-09-10T16:36:41.710Z,59.60
2022-09-10T16:39:22.292Z,60.10
2022-09-10T16:41:54.447Z,59.60
2022-09-10T16:44:31.627Z,59.87
2022-09-10T16:47:06.276Z,59.07
2022-09-10T16:49:38.373Z,60.34
2022-09-10T16:52:09.707Z,60.27
2022-09-10T16:54:40.467Z,60.29
2022-09-10T17:06:39.220Z,60.32
2022-09-10T17:09:49.253Z,60.31
2022-09-10T17:12:18.886Z,59.94
2022-09-10T17:19:15.519Z,60.80
2022-09-10T17:36:38.380Z,61.37
2022-09-10T17:44:29.996Z,61.90
2022-09-10T17:48:11.102Z,61.05
2022-09-10T17:50:46.448Z,60.96
2022-09-10T17:53:29.672Z,60.89
2022-09-10T17:56:04.902Z,60.62
2022-09-10T17:58:40.544Z,60.09
2022-09-10T18:01:14.262Z,61.09
2022-09-10T18:04:12.645Z,60.49
2022-09-10T18:07:26.501Z,61.19
2022-09-10T18:09:56.203Z,61.15
2022-09-10T18:12:27.303Z,61.33
2022-09-10T18:14:55.334Z,61.22
2022-09-10T18:17:23.291Z,61.93
2022-09-10T18:19:51.686Z,61.42
2022-09-10T18:22:19.624Z,61.13
2022-09-10T18:24:48.102Z,62.37
2022-09-10T18:27:17.414Z,61.58
2022-09-10T18:29:45.487Z,62.58
2022-09-10T18:32:17.156Z,62.39
2022-09-10T18:34:45.137Z,62.91
2022-09-10T18:37:13.833Z,62.11
2022-09-10T18:39:41.918Z,62.69
2022-09-10T18:42:10.037Z,62.15
2022-09-10T18:44:40.319Z,61.96
2022-09-10T18:47:27.841Z,62.72
2022-09-10T18:49:59.044Z,62.32
2022-09-10T18:52:27.113Z,62.23
2022-09-10T18:54:55.154Z,61.75
2022-09-10T18:57:24.642Z,61.45
2022-09-10T18:59:55.136Z,62.27
2022-09-10T19:02:24.066Z,62.68
2022-09-10T19:05:11.749Z,62.89
2022-09-10T19:07:40.388Z,62.42
2022-09-10T19:10:09.122Z,62.54
2022-09-10T19:12:37.142Z,62.18
2022-09-10T19:15:07.446Z,61.92
2022-09-10T19:17:35.593Z,62.26
2022-09-10T19:20:04.036Z,62.35
2022-09-10T19:22:31.981Z,62.67
2022-09-10T19:25:00.855Z,63.00
2022-09-10T19:27:29.045Z,62.64
2022-09-10T19:29:56.976Z,62.37
2022-09-10T19:32:26.311Z,62.95
2022-09-10T19:34:55.411Z,63.23
2022-09-10T19:37:24.370Z,62.81
2022-09-10T19:39:52.559Z,62.34
2022-09-10T19:42:20.557Z,62.81
2022-09-10T19:44:48.526Z,63.01
2022-09-10T19:47:16.587Z,62.69
2022-09-10T19:49:45.861Z,62.49
2022-09-10T19:52:14.861Z,62.36
2022-09-10T19:54:42.867Z,62.20
2022-09-10T19:57:11.094Z,62.09
2022-09-10T19:59:39.228Z,62.79
2022-09-10T20:02:07.678Z,62.70
2022-09-10T20:04:36.356Z,61.86
2022-09-10T20:07:06.564Z,62.49
2022-09-10T20:09:39.221Z,62.61
2022-09-10T20:12:08.818Z,62.36
2022-09-10T20:14:37.301Z,62.10
2022-09-10T20:17:05.962Z,62.44
2022-09-10T20:19:36.852Z,62.19
2022-09-10T20:22:06.234Z,62.40
2022-09-10T20:24:34.464Z,62.33
2022-09-10T20:27:02.475Z,62.25
2022-09-10T20:29:32.902Z,62.62
2022-09-10T20:32:00.960Z,62.61
2022-09-10T20:34:28.924Z,62.36
2022-09-10T20:36:57.013Z,62.38
2022-09-10T20:39:26.367Z,62.77
2022-09-10T20:41:54.573Z,63.17
2022-09-10T20:44:23.112Z,63.02
2022-09-10T20:46:51.434Z,62.98
2022-09-10T20:49:19.641Z,62.86
2022-09-10T20:51:48.320Z,62.58
2022-09-10T20:54:17.999Z,62.05
2022-09-10T20:56:47.800Z,62.17
2022-09-10T20:59:17.183Z,62.17
2022-09-10T21:01:47.019Z,62.72
2022-09-10T21:04:16.071Z,62.77
2022-09-10T21:06:44.214Z,62.15
2022-09-10T21:09:12.891Z,61.96
2022-09-10T21:11:41.137Z,62.79
2022-09-10T21:14:12.784Z,62.39
2022-09-10T21:16:43.215Z,62.12
2022-09-10T21:19:12.959Z,62.27
2022-09-10T21:21:42.467Z,62.04
2022-09-10T21:24:12.567Z,61.47
2022-09-10T21:26:43.499Z,62.29
2022-09-10T21:29:14.694Z,62.67
2022-09-10T21:31:43.785Z,63.33
2022-09-10T21:34:12.153Z,63.20
2022-09-10T21:36:41.306Z,62.83
2022-09-10T21:39:14.266Z,62.86
2022-09-10T21:41:45.138Z,62.54
2022-09-10T21:44:16.188Z,62.80
2022-09-10T21:46:45.033Z,62.67
2022-09-10T21:49:34.899Z,62.74
2022-09-10T21:52:03.460Z,61.06
2022-09-10T21:54:31.622Z,61.56
2022-09-10T21:56:59.599Z,62.35
2022-09-10T21:59:28.913Z,63.63
2022-09-10T22:01:59.428Z,63.04
2022-09-10T22:04:27.768Z,63.20
2022-09-10T22:06:56.694Z,62.79
2022-09-10T22:09:26.299Z,62.71
2022-09-10T22:11:56.423Z,62.99
2022-09-10T22:14:25.959Z,63.43
2022-09-10T22:16:55.404Z,62.51
2022-09-10T22:19:25.242Z,62.90
2022-09-10T22:21:54.302Z,63.34
2022-09-10T22:24:22.405Z,63.11
2022-09-10T22:26:50.695Z,63.71
2022-09-10T22:29:20.409Z,64.01
2022-09-10T22:31:49.596Z,64.06
2022-09-10T22:34:20.749Z,64.15
2022-09-10T22:36:49.342Z,63.56
2022-09-10T22:39:18.947Z,63.59
2022-09-10T22:41:47.702Z,63.47
2022-09-10T22:44:17.696Z,62.50
2022-09-10T22:46:46.299Z,62.47
2022-09-10T22:49:18.006Z,62.83
2022-09-10T22:51:47.759Z,62.93
2022-09-10T22:54:16.611Z,62.36
2022-09-10T22:56:44.697Z,60.93
2022-09-10T22:59:13.700Z,61.43
2022-09-10T23:01:43.329Z,63.32
2022-09-10T23:04:12.464Z,62.67
2022-09-10T23:06:41.012Z,62.35
2022-09-10T23:09:13.419Z,62.04
2022-09-10T23:11:42.148Z,62.13
2022-09-10T23:14:14.156Z,61.96
2022-09-10T23:16:44.118Z,61.85
2022-09-10T23:19:13.713Z,61.74
2022-09-10T23:21:43.976Z,62.04
2022-09-10T23:24:15.008Z,61.66
2022-09-10T23:26:43.733Z,61.89
2022-09-10T23:29:12.473Z,62.55
2022-09-10T23:31:41.782Z,61.93
2022-09-10T23:34:12.826Z,61.69
2022-09-10T23:36:42.952Z,60.48
2022-09-10T23:39:14.770Z,61.68
2022-09-10T23:41:43.173Z,60.83
2022-09-10T23:44:11.498Z,60.68
2022-09-10T23:46:39.904Z,62.04
2022-09-10T23:49:07.967Z,61.80
2022-09-10T23:51:36.612Z,62.12
2022-09-10T23:54:05.312Z,61.53
2022-09-10T23:56:35.243Z,61.36
2022-09-10T23:59:03.537Z,62.32
